sensor_id;sensor_type;location;lat;lon;timestamp;pressure;altitude;pressure_sealevel;temperature;humidity
60465;BME280;46314;52.392;9.758;2023-05-01T00:02:13;101266.03;;;10.03;53.40
60465;BME280;46314;52.392;9.758;2023-05-01T00:04:39;101268.34;;;9.76;53.37
60465;BME280;46314;52.392;9.758;2023-05-01T00:07:06;101257.25;;;9.86;53.10
60465;BME280;46314;52.392;9.758;2023-05-01T00:09:33;101255.25;;;9.97;52.92
60465;BME280;46314;52.392;9.758;2023-05-01T00:12:00;101255.91;;;9.63;53.61
60465;BME280;46314;52.392;9.758;2023-05-01T00:14:27;101256.97;;;9.82;53.10
60465;BME280;46314;52.392;9.758;2023-05-01T00:16:53;101243.41;;;9.76;53.42
60465;BME280;46314;52.392;9.758;2023-05-01T00:19:20;101242.81;;;9.89;52.77
60465;BME280;46314;52.392;9.758;2023-05-01T00:21:47;101235.19;;;9.35;53.82
60465;BME280;46314;52.392;9.758;2023-05-01T00:24:13;101238.50;;;9.42;54.27
60465;BME280;46314;52.392;9.758;2023-05-01T00:26:41;101237.41;;;9.43;53.40
60465;BME280;46314;52.392;9.758;2023-05-01T00:29:07;101236.53;;;9.68;53.19
60465;BME280;46314;52.392;9.758;2023-05-01T00:31:34;101222.41;;;9.70;53.76
60465;BME280;46314;52.392;9.758;2023-05-01T00:34:01;101222.16;;;9.56;54.38
60465;BME280;46314;52.392;9.758;2023-05-01T00:36:27;101224.38;;;9.54;53.87
60465;BME280;46314;52.392;9.758;2023-05-01T00:38:54;101216.63;;;9.40;54.82
60465;BME280;46314;52.392;9.758;2023-05-01T00:41:20;101216.97;;;9.18;53.96
60465;BME280;46314;52.392;9.758;2023-05-01T00:43:48;101216.38;;;9.21;54.99
60465;BME280;46314;52.392;9.758;2023-05-01T00:46:14;101209.16;;;9.46;54.58
60465;BME280;46314;52.392;9.758;2023-05-01T00:48:41;101213.31;;;9.33;55.25
60465;BME280;46314;52.392;9.758;2023-05-01T00:51:07;101211.16;;;9.15;55.25
60465;BME280;46314;52.392;9.758;2023-05-01T00:53:34;101207.00;;;9.12;55.70
60465;BME280;46314;52.392;9.758;2023-05-01T00:56:01;101209.75;;;9.17;54.97
60465;BME280;46314;52.392;9.758;2023-05-01T00:58:28;101205.91;;;9.08;56.63
60465;BME280;46314;52.392;9.758;2023-05-01T01:00:56;101211.69;;;9.27;56.28
60465;BME280;46314;52.392;9.758;2023-05-01T01:03:23;101211.44;;;9.13;56.16
60465;BME280;46314;52.392;9.758;2023-05-01T01:05:52;101198.69;;;9.07;56.76
60465;BME280;46314;52.392;9.758;2023-05-01T01:08:26;101201.72;;;9.10;56.70
60465;BME280;46314;52.392;9.758;2023-05-01T01:11:09;101194.28;;;8.90;57.42
60465;BME280;46314;52.392;9.758;2023-05-01T01:13:42;101189.84;;;8.79;58.07
60465;BME280;46314;52.392;9.758;2023-05-01T01:16:18;101191.78;;;8.79;57.25
60465;BME280;46314;52.392;9.758;2023-05-01T01:18:50;101197.59;;;8.98;57.13
60465;BME280;46314;52.392;9.758;2023-05-01T01:21:20;101190.94;;;9.19;56.82
60465;BME280;46314;52.392;9.758;2023-05-01T01:27:00;101181.53;;;8.89;58.01
60465;BME280;46314;52.392;9.758;2023-05-01T01:30:12;101177.41;;;9.02;56.23
60465;BME280;46314;52.392;9.758;2023-05-01T01:32:57;101181.00;;;8.93;56.50
60465;BME280;46314;52.392;9.758;2023-05-01T01:35:27;101180.44;;;8.90;56.92
60465;BME280;46314;52.392;9.758;2023-05-01T01:37:59;101176.56;;;9.07;55.95
60465;BME280;46314;52.392;9.758;2023-05-01T01:40:31;101168.25;;;8.86;56.18
60465;BME280;46314;52.392;9.758;2023-05-01T01:43:02;101166.84;;;9.20;55.71
60465;BME280;46314;52.392;9.758;2023-05-01T01:45:36;101170.19;;;9.27;55.17
60465;BME280;46314;52.392;9.758;2023-05-01T01:48:05;101159.94;;;9.17;56.23
60465;BME280;46314;52.392;9.758;2023-05-01T01:50:36;101164.41;;;8.67;57.19
60465;BME280;46314;52.392;9.758;2023-05-01T01:53:04;101156.66;;;8.84;57.44
60465;BME280;46314;52.392;9.758;2023-05-01T01:55:33;101153.59;;;8.91;57.30
60465;BME280;46314;52.392;9.758;2023-05-01T01:58:02;101144.44;;;8.29;58.14
60465;BME280;46314;52.392;9.758;2023-05-01T02:00:29;101143.41;;;8.71;57.22
60465;BME280;46314;52.392;9.758;2023-05-01T02:02:57;101141.72;;;8.85;56.37
60465;BME280;46314;52.392;9.758;2023-05-01T02:05:25;101143.13;;;8.67;56.97
60465;BME280;46314;52.392;9.758;2023-05-01T02:07:55;101143.94;;;8.73;57.79
60465;BME280;46314;52.392;9.758;2023-05-01T02:10:23;101136.19;;;9.06;56.79
60465;BME280;46314;52.392;9.758;2023-05-01T02:12:52;101134.22;;;9.01;57.32
60465;BME280;46314;52.392;9.758;2023-05-01T02:15:20;101134.25;;;8.76;56.74
60465;BME280;46314;52.392;9.758;2023-05-01T02:17:49;101131.97;;;8.06;58.16
60465;BME280;46314;52.392;9.758;2023-05-01T02:20:17;101130.66;;;8.65;58.01
60465;BME280;46314;52.392;9.758;2023-05-01T02:22:44;101131.22;;;8.51;57.13
60465;BME280;46314;52.392;9.758;2023-05-01T02:25:13;101124.56;;;8.47;57.10
60465;BME280;46314;52.392;9.758;2023-05-01T02:27:43;101117.69;;;8.60;56.82
60465;BME280;46314;52.392;9.758;2023-05-01T02:30:12;101116.56;;;8.77;57.05
60465;BME280;46314;52.392;9.758;2023-05-01T02:32:38;101105.75;;;8.85;56.86
60465;BME280;46314;52.392;9.758;2023-05-01T02:35:05;101103.31;;;8.48;57.92
60465;BME280;46314;52.392;9.758;2023-05-01T02:37:31;101092.47;;;8.21;57.82
60465;BME280;46314;52.392;9.758;2023-05-01T02:39:59;101081.75;;;8.55;56.57
60465;BME280;46314;52.392;9.758;2023-05-01T02:42:27;101088.06;;;8.35;57.04
60465;BME280;46314;52.392;9.758;2023-05-01T02:44:56;101085.31;;;8.50;57.04
60465;BME280;46314;52.392;9.758;2023-05-01T02:47:26;101071.47;;;8.04;58.15
60465;BME280;46314;52.392;9.758;2023-05-01T02:49:53;101078.97;;;8.65;57.13
60465;BME280;46314;52.392;9.758;2023-05-01T02:52:21;101068.75;;;8.56;57.29
60465;BME280;46314;52.392;9.758;2023-05-01T02:54:48;101077.31;;;8.64;57.26
60465;BME280;46314;52.392;9.758;2023-05-01T02:57:16;101073.19;;;8.57;57.57
60465;BME280;46314;52.392;9.758;2023-05-01T02:59:43;101073.19;;;8.57;58.30
60465;BME280;46314;52.392;9.758;2023-05-01T03:02:10;101064.03;;;8.61;58.28
60465;BME280;46314;52.392;9.758;2023-05-01T03:04:36;101061.78;;;8.79;57.53
60465;BME280;46314;52.392;9.758;2023-05-01T03:07:03;101064.03;;;8.51;57.41
60465;BME280;46314;52.392;9.758;2023-05-01T03:09:30;101055.16;;;8.90;57.66
60465;BME280;46314;52.392;9.758;2023-05-01T03:11:57;101060.97;;;8.73;57.72
60465;BME280;46314;52.392;9.758;2023-05-01T03:14:23;101063.50;;;8.49;58.63
60465;BME280;46314;52.392;9.758;2023-05-01T03:16:51;101055.44;;;8.68;58.46
60465;BME280;46314;52.392;9.758;2023-05-01T03:19:17;101051.03;;;8.26;59.75
60465;BME280;46314;52.392;9.758;2023-05-01T03:21:44;101063.47;;;8.59;59.02
60465;BME280;46314;52.392;9.758;2023-05-01T03:24:10;101060.44;;;8.45;59.09
60465;BME280;46314;52.392;9.758;2023-05-01T03:26:37;101052.16;;;8.20;59.60
60465;BME280;46314;52.392;9.758;2023-05-01T03:29:03;101054.06;;;8.14;59.63
60465;BME280;46314;52.392;9.758;2023-05-01T03:31:29;101050.75;;;8.12;59.29
60465;BME280;46314;52.392;9.758;2023-05-01T03:33:57;101047.44;;;8.05;60.29
60465;BME280;46314;52.392;9.758;2023-05-01T03:36:24;101042.19;;;8.24;59.39
60465;BME280;46314;52.392;9.758;2023-05-01T03:38:50;101046.91;;;8.44;58.89
60465;BME280;46314;52.392;9.758;2023-05-01T03:41:16;101035.84;;;8.13;58.79
60465;BME280;46314;52.392;9.758;2023-05-01T03:43:43;101038.03;;;8.37;58.73
60465;BME280;46314;52.392;9.758;2023-05-01T03:46:09;101030.59;;;8.32;59.56
60465;BME280;46314;52.392;9.758;2023-05-01T03:48:36;101022.25;;;8.73;57.83
60465;BME280;46314;52.392;9.758;2023-05-01T03:51:04;101032.81;;;8.45;58.30
60465;BME280;46314;52.392;9.758;2023-05-01T03:53:30;101030.84;;;8.41;59.21
60465;BME280;46314;52.392;9.758;2023-05-01T03:55:57;101019.50;;;7.86;60.31
60465;BME280;46314;52.392;9.758;2023-05-01T03:58:23;101018.69;;;8.16;59.82
60465;BME280;46314;52.392;9.758;2023-05-01T04:00:49;101010.28;;;7.34;61.41
60465;BME280;46314;52.392;9.758;2023-05-01T04:03:16;101016.50;;;8.23;59.54
60465;BME280;46314;52.392;9.758;2023-05-01T04:05:42;101017.88;;;8.15;59.29
60465;BME280;46314;52.392;9.758;2023-05-01T04:08:10;101006.81;;;7.95;60.26
60465;BME280;46314;52.392;9.758;2023-05-01T04:10:37;101013.16;;;8.16;59.50
60465;BME280;46314;52.392;9.758;2023-05-01T04:13:03;101011.78;;;8.19;59.70
60465;BME280;46314;52.392;9.758;2023-05-01T04:15:29;101006.03;;;7.00;62.29
60465;BME280;46314;52.392;9.758;2023-05-01T04:17:56;101003.72;;;6.82;63.06
60465;BME280;46314;52.392;9.758;2023-05-01T04:20:22;100997.66;;;7.58;61.44
60465;BME280;46314;52.392;9.758;2023-05-01T04:22:49;101001.28;;;8.05;60.80
60465;BME280;46314;52.392;9.758;2023-05-01T04:25:16;100996.81;;;7.58;61.24
60465;BME280;46314;52.392;9.758;2023-05-01T04:27:43;100998.25;;;7.96;60.51
60465;BME280;46314;52.392;9.758;2023-05-01T04:30:10;101005.97;;;8.46;59.53
60465;BME280;46314;52.392;9.758;2023-05-01T04:32:36;101000.72;;;8.03;60.55
60465;BME280;46314;52.392;9.758;2023-05-01T04:35:03;100999.91;;;7.92;60.71
60465;BME280;46314;52.392;9.758;2023-05-01T04:37:30;101005.72;;;8.27;59.82
60465;BME280;46314;52.392;9.758;2023-05-01T04:39:56;101002.41;;;8.04;59.89
60465;BME280;46314;52.392;9.758;2023-05-01T04:42:29;100996.03;;;8.40;58.93
60465;BME280;46314;52.392;9.758;2023-05-01T04:44:56;100986.38;;;8.32;59.33
60465;BME280;46314;52.392;9.758;2023-05-01T04:47:22;100997.94;;;8.65;58.27
60465;BME280;46314;52.392;9.758;2023-05-01T04:49:49;100999.34;;;8.52;58.82
60465;BME280;46314;52.392;9.758;2023-05-01T04:52:15;100995.13;;;8.80;58.03
60465;BME280;46314;52.392;9.758;2023-05-01T04:54:41;100988.81;;;8.59;58.12
60465;BME280;46314;52.392;9.758;2023-05-01T04:57:08;100992.41;;;8.55;59.37
60465;BME280;46314;52.392;9.758;2023-05-01T04:59:35;100996.84;;;8.40;58.53
60465;BME280;46314;52.392;9.758;2023-05-01T05:02:02;100999.88;;;8.69;58.37
60465;BME280;46314;52.392;9.758;2023-05-01T05:04:29;100990.22;;;8.57;57.54
60465;BME280;46314;52.392;9.758;2023-05-01T05:06:55;100987.50;;;9.22;57.26
60465;BME280;46314;52.392;9.758;2023-05-01T05:09:22;100990.97;;;8.83;57.46
60465;BME280;46314;52.392;9.758;2023-05-01T05:11:49;100985.59;;;9.17;56.87
60465;BME280;46314;52.392;9.758;2023-05-01T05:14:15;100986.63;;;8.56;57.65
60465;BME280;46314;52.392;9.758;2023-05-01T05:16:43;100990.78;;;8.28;58.72
60465;BME280;46314;52.392;9.758;2023-05-01T05:19:09;100991.91;;;8.32;58.85
60465;BME280;46314;52.392;9.758;2023-05-01T05:21:36;100988.56;;;8.56;58.20
60465;BME280;46314;52.392;9.758;2023-05-01T05:24:02;100992.88;;;8.93;57.21
60465;BME280;46314;52.392;9.758;2023-05-01T05:26:29;100985.63;;;9.07;56.48
60465;BME280;46314;52.392;9.758;2023-05-01T05:28:55;100987.38;;;8.87;56.72
60465;BME280;46314;52.392;9.758;2023-05-01T05:31:22;100988.81;;;8.64;57.51
60465;BME280;46314;52.392;9.758;2023-05-01T05:33:49;100984.44;;;8.38;58.35
60465;BME280;46314;52.392;9.758;2023-05-01T05:36:16;100979.97;;;8.67;57.52
60465;BME280;46314;52.392;9.758;2023-05-01T05:38:42;100984.56;;;8.98;55.93
60465;BME280;46314;52.392;9.758;2023-05-01T05:41:09;100981.94;;;8.57;57.41
60465;BME280;46314;52.392;9.758;2023-05-01T05:43:35;100978.34;;;9.26;56.23
60465;BME280;46314;52.392;9.758;2023-05-01T05:46:02;100986.53;;;9.47;55.20
60465;BME280;46314;52.392;9.758;2023-05-01T05:48:28;100978.44;;;9.06;56.45
60465;BME280;46314;52.392;9.758;2023-05-01T05:50:56;100972.59;;;9.13;56.08
60465;BME280;46314;52.392;9.758;2023-05-01T05:53:23;100976.94;;;9.34;56.71
60465;BME280;46314;52.392;9.758;2023-05-01T05:55:51;100972.75;;;9.37;55.30
60465;BME280;46314;52.392;9.758;2023-05-01T05:58:17;100972.31;;;9.64;54.75
60465;BME280;46314;52.392;9.758;2023-05-01T06:00:45;100976.16;;;9.68;54.50
60465;BME280;46314;52.392;9.758;2023-05-01T06:03:11;100965.56;;;9.75;54.51
60465;BME280;46314;52.392;9.758;2023-05-01T06:05:38;100971.13;;;10.10;52.90
60465;BME280;46314;52.392;9.758;2023-05-01T06:08:06;100966.28;;;10.26;52.50
60465;BME280;46314;52.392;9.758;2023-05-01T06:10:32;100961.25;;;10.33;52.39
60465;BME280;46314;52.392;9.758;2023-05-01T06:12:59;100959.72;;;10.11;53.02
60465;BME280;46314;52.392;9.758;2023-05-01T06:15:39;100959.63;;;10.21;52.64
60465;BME280;46314;52.392;9.758;2023-05-01T06:18:06;100954.56;;;10.29;52.04
60465;BME280;46314;52.392;9.758;2023-05-01T06:20:33;100954.22;;;10.40;52.42
60465;BME280;46314;52.392;9.758;2023-05-01T06:22:59;100953.09;;;11.14;51.34
60465;BME280;46314;52.392;9.758;2023-05-01T06:25:27;100953.84;;;11.96;48.91
60465;BME280;46314;52.392;9.758;2023-05-01T06:27:53;100960.72;;;12.17;48.32
60465;BME280;46314;52.392;9.758;2023-05-01T06:30:20;100944.16;;;11.74;48.51
60465;BME280;46314;52.392;9.758;2023-05-01T06:32:47;100956.41;;;12.25;47.04
60465;BME280;46314;52.392;9.758;2023-05-01T06:35:13;100945.47;;;12.28;48.54
60465;BME280;46314;52.392;9.758;2023-05-01T06:37:40;100944.38;;;13.13;46.43
60465;BME280;46314;52.392;9.758;2023-05-01T06:40:09;100939.81;;;13.67;44.96
60465;BME280;46314;52.392;9.758;2023-05-01T06:42:37;100941.69;;;11.91;47.59
60465;BME280;46314;52.392;9.758;2023-05-01T06:45:05;100930.44;;;12.43;47.06
60465;BME280;46314;52.392;9.758;2023-05-01T06:47:31;100931.41;;;12.39;46.95
60465;BME280;46314;52.392;9.758;2023-05-01T06:49:58;100931.13;;;12.07;47.33
60465;BME280;46314;52.392;9.758;2023-05-01T06:52:26;100928.19;;;12.59;46.89
60465;BME280;46314;52.392;9.758;2023-05-01T06:54:52;100925.31;;;12.64;46.76
60465;BME280;46314;52.392;9.758;2023-05-01T06:57:19;100918.88;;;13.33;45.06
60465;BME280;46314;52.392;9.758;2023-05-01T06:59:47;100924.84;;;13.40;45.20
60465;BME280;46314;52.392;9.758;2023-05-01T07:02:13;100918.53;;;12.84;46.10
60465;BME280;46314;52.392;9.758;2023-05-01T07:04:39;100922.84;;;12.77;45.79
60465;BME280;46314;52.392;9.758;2023-05-01T07:07:06;100916.56;;;13.49;44.33
60465;BME280;46314;52.392;9.758;2023-05-01T07:09:32;100918.50;;;14.16;41.58
60465;BME280;46314;52.392;9.758;2023-05-01T07:11:59;100907.75;;;13.33;43.51
60465;BME280;46314;52.392;9.758;2023-05-01T07:14:25;100907.06;;;13.50;43.00
60465;BME280;46314;52.392;9.758;2023-05-01T07:16:53;100912.50;;;14.00;41.97
60465;BME280;46314;52.392;9.758;2023-05-01T07:19:19;100901.88;;;14.34;40.94
60465;BME280;46314;52.392;9.758;2023-05-01T07:21:46;100901.81;;;15.66;38.38
60465;BME280;46314;52.392;9.758;2023-05-01T07:24:12;100899.91;;;17.51;35.69
60465;BME280;46314;52.392;9.758;2023-05-01T07:26:39;100909.69;;;17.99;34.68
60465;BME280;46314;52.392;9.758;2023-05-01T07:29:05;100903.97;;;18.78;32.95
60465;BME280;46314;52.392;9.758;2023-05-01T07:31:31;100899.84;;;21.02;31.22
60465;BME280;46314;52.392;9.758;2023-05-01T07:33:59;100901.25;;;20.76;29.73
60465;BME280;46314;52.392;9.758;2023-05-01T07:36:26;100906.69;;;23.67;26.71
60465;BME280;46314;52.392;9.758;2023-05-01T07:38:52;100894.75;;;25.96;24.75
60465;BME280;46314;52.392;9.758;2023-05-01T07:41:18;100888.69;;;22.03;27.98
60465;BME280;46314;52.392;9.758;2023-05-01T07:43:45;100887.78;;;19.37;32.29
60465;BME280;46314;52.392;9.758;2023-05-01T07:46:11;100886.06;;;23.06;27.07
60465;BME280;46314;52.392;9.758;2023-05-01T07:48:38;100889.16;;;19.43;31.31
60465;BME280;46314;52.392;9.758;2023-05-01T07:51:06;100889.34;;;17.90;34.37
60465;BME280;46314;52.392;9.758;2023-05-01T07:53:33;100885.72;;;19.90;33.04
60465;BME280;46314;52.392;9.758;2023-05-01T07:56:03;100892.91;;;23.05;27.81
60465;BME280;46314;52.392;9.758;2023-05-01T07:58:30;100880.00;;;19.05;32.58
60465;BME280;46314;52.392;9.758;2023-05-01T08:00:56;100872.50;;;17.69;35.31
60465;BME280;46314;52.392;9.758;2023-05-01T08:03:23;100878.72;;;21.47;30.68
60465;BME280;46314;52.392;9.758;2023-05-01T08:05:50;100876.84;;;25.81;24.72
60465;BME280;46314;52.392;9.758;2023-05-01T08:08:18;100867.28;;;24.26;25.77
60465;BME280;46314;52.392;9.758;2023-05-01T08:10:44;100870.69;;;20.30;29.59
60465;BME280;46314;52.392;9.758;2023-05-01T08:13:10;100874.06;;;23.16;27.13
60465;BME280;46314;52.392;9.758;2023-05-01T08:15:37;100871.91;;;23.06;26.94
60465;BME280;46314;52.392;9.758;2023-05-01T08:18:04;100865.50;;;20.80;30.21
60465;BME280;46314;52.392;9.758;2023-05-01T08:20:30;100854.03;;;19.37;31.95
60465;BME280;46314;52.392;9.758;2023-05-01T08:22:56;100850.31;;;20.05;32.31
60465;BME280;46314;52.392;9.758;2023-05-01T08:25:24;100859.75;;;22.29;29.33
60465;BME280;46314;52.392;9.758;2023-05-01T08:27:51;100861.31;;;21.45;29.79
60465;BME280;46314;52.392;9.758;2023-05-01T08:30:17;100854.31;;;19.19;32.86
60465;BME280;46314;52.392;9.758;2023-05-01T08:32:44;100851.97;;;19.09;32.88
60465;BME280;46314;52.392;9.758;2023-05-01T08:35:10;100844.03;;;19.67;31.77
60465;BME280;46314;52.392;9.758;2023-05-01T08:37:36;100841.63;;;19.25;32.92
60465;BME280;46314;52.392;9.758;2023-05-01T08:40:04;100838.06;;;18.76;33.80
60465;BME280;46314;52.392;9.758;2023-05-01T08:42:33;100846.75;;;18.58;34.10
60465;BME280;46314;52.392;9.758;2023-05-01T08:45:00;100844.72;;;19.08;33.06
60465;BME280;46314;52.392;9.758;2023-05-01T08:47:27;100848.00;;;18.48;34.16
60465;BME280;46314;52.392;9.758;2023-05-01T08:49:54;100841.81;;;18.80;32.77
60465;BME280;46314;52.392;9.758;2023-05-01T08:52:22;100847.19;;;18.97;33.78
60465;BME280;46314;52.392;9.758;2023-05-01T08:54:50;100837.81;;;19.05;34.70
60465;BME280;46314;52.392;9.758;2023-05-01T08:57:17;100838.25;;;17.96;34.92
60465;BME280;46314;52.392;9.758;2023-05-01T08:59:45;100831.81;;;17.29;35.87
60465;BME280;46314;52.392;9.758;2023-05-01T09:02:14;100836.66;;;18.94;34.56
60465;BME280;46314;52.392;9.758;2023-05-01T09:04:40;100832.03;;;19.55;33.86
60465;BME280;46314;52.392;9.758;2023-05-01T09:07:08;100829.84;;;17.96;36.18
60465;BME280;46314;52.392;9.758;2023-05-01T09:09:34;100827.59;;;19.98;33.22
60465;BME280;46314;52.392;9.758;2023-05-01T09:12:09;100834.78;;;20.43;31.78
60465;BME280;46314;52.392;9.758;2023-05-01T09:14:37;100827.84;;;20.88;32.23
60465;BME280;46314;52.392;9.758;2023-05-01T09:17:05;100822.91;;;21.40;31.35
60465;BME280;46314;52.392;9.758;2023-05-01T09:19:31;100815.03;;;21.49;31.48
60465;BME280;46314;52.392;9.758;2023-05-01T09:21:58;100821.03;;;24.63;27.97
60465;BME280;46314;52.392;9.758;2023-05-01T09:24:24;100822.31;;;21.70;30.06
60465;BME280;46314;52.392;9.758;2023-05-01T09:26:51;100811.97;;;20.00;33.84
60465;BME280;46314;52.392;9.758;2023-05-01T09:29:36;100813.03;;;21.69;31.28
60465;BME280;46314;52.392;9.758;2023-05-01T09:32:15;100821.25;;;23.28;29.78
60465;BME280;46314;52.392;9.758;2023-05-01T09:34:43;100812.47;;;23.36;28.92
60465;BME280;46314;52.392;9.758;2023-05-01T09:37:11;100802.59;;;23.23;29.49
60465;BME280;46314;52.392;9.758;2023-05-01T09:39:38;100793.38;;;22.46;30.35
60465;BME280;46314;52.392;9.758;2023-05-01T09:42:04;100800.94;;;21.69;31.77
60465;BME280;46314;52.392;9.758;2023-05-01T09:44:31;100783.53;;;21.28;31.06
60465;BME280;46314;52.392;9.758;2023-05-01T09:47:05;100788.34;;;19.45;34.08
60465;BME280;46314;52.392;9.758;2023-05-01T09:49:46;100783.78;;;20.64;33.81
60465;BME280;46314;52.392;9.758;2023-05-01T09:52:12;100785.63;;;20.92;32.47
60465;BME280;46314;52.392;9.758;2023-05-01T09:54:39;100779.03;;;19.57;33.98
60465;BME280;46314;52.392;9.758;2023-05-01T09:57:06;100782.16;;;20.98;33.68
60465;BME280;46314;52.392;9.758;2023-05-01T09:59:32;100787.56;;;21.07;33.47
60465;BME280;46314;52.392;9.758;2023-05-01T10:01:59;100776.31;;;20.91;33.09
60465;BME280;46314;52.392;9.758;2023-05-01T10:04:29;100782.81;;;20.24;34.01
60465;BME280;46314;52.392;9.758;2023-05-01T10:06:58;100775.09;;;20.37;34.14
60465;BME280;46314;52.392;9.758;2023-05-01T10:09:26;100771.09;;;21.09;33.61
60465;BME280;46314;52.392;9.758;2023-05-01T10:11:54;100767.53;;;21.32;33.55
60465;BME280;46314;52.392;9.758;2023-05-01T10:14:21;100770.13;;;21.41;32.73
60465;BME280;46314;52.392;9.758;2023-05-01T10:16:47;100763.72;;;20.85;33.03
60465;BME280;46314;52.392;9.758;2023-05-01T10:19:15;100772.03;;;19.95;33.68
60465;BME280;46314;52.392;9.758;2023-05-01T10:21:42;100782.28;;;20.86;33.22
60465;BME280;46314;52.392;9.758;2023-05-01T10:24:10;100768.03;;;19.52;33.74
60465;BME280;46314;52.392;9.758;2023-05-01T10:26:37;100770.91;;;20.15;33.10
60465;BME280;46314;52.392;9.758;2023-05-01T10:29:03;100761.81;;;20.38;34.73
60465;BME280;46314;52.392;9.758;2023-05-01T10:31:30;100759.66;;;21.02;33.13
60465;BME280;46314;52.392;9.758;2023-05-01T10:33:57;100764.94;;;19.57;34.08
60465;BME280;46314;52.392;9.758;2023-05-01T10:36:25;100750.13;;;19.88;34.81
60465;BME280;46314;52.392;9.758;2023-05-01T10:38:52;100746.72;;;20.82;33.44
60465;BME280;46314;52.392;9.758;2023-05-01T10:44:21;100756.69;;;21.77;32.27
60465;BME280;46314;52.392;9.758;2023-05-01T10:46:48;100746.19;;;22.00;32.25
60465;BME280;46314;52.392;9.758;2023-05-01T10:49:16;100732.97;;;19.77;34.72
60465;BME280;46314;52.392;9.758;2023-05-01T10:51:58;100729.59;;;20.03;34.96
60465;BME280;46314;52.392;9.758;2023-05-01T10:54:26;100732.78;;;20.02;35.03
60465;BME280;46314;52.392;9.758;2023-05-01T10:56:54;100726.56;;;20.28;33.85
60465;BME280;46314;52.392;9.758;2023-05-01T10:59:22;100720.53;;;21.01;33.61
60465;BME280;46314;52.392;9.758;2023-05-01T11:01:48;100722.28;;;21.09;33.40
60465;BME280;46314;52.392;9.758;2023-05-01T11:04:44;100715.13;;;20.92;34.11
60465;BME280;46314;52.392;9.758;2023-05-01T11:07:15;100717.69;;;21.40;33.08
60465;BME280;46314;52.392;9.758;2023-05-01T11:09:42;100709.06;;;22.25;31.70
60465;BME280;46314;52.392;9.758;2023-05-01T11:12:11;100711.03;;;21.28;32.11
60465;BME280;46314;52.392;9.758;2023-05-01T11:15:04;100702.97;;;21.07;32.15
60465;BME280;46314;52.392;9.758;2023-05-01T11:17:46;100705.06;;;21.76;31.36
60465;BME280;46314;52.392;9.758;2023-05-01T11:20:45;100703.59;;;21.86;31.00
60465;BME280;46314;52.392;9.758;2023-05-01T11:23:16;100699.59;;;21.64;31.31
60465;BME280;46314;52.392;9.758;2023-05-01T11:25:46;100705.88;;;21.77;31.88
60465;BME280;46314;52.392;9.758;2023-05-01T11:28:18;100694.88;;;21.48;33.35
60465;BME280;46314;52.392;9.758;2023-05-01T11:30:46;100693.75;;;21.76;32.10
60465;BME280;46314;52.392;9.758;2023-05-01T11:33:13;100689.97;;;21.45;33.19
60465;BME280;46314;52.392;9.758;2023-05-01T11:35:39;100689.75;;;21.34;32.01
60465;BME280;46314;52.392;9.758;2023-05-01T11:38:15;100690.63;;;21.38;32.40
60465;BME280;46314;52.392;9.758;2023-05-01T11:40:42;100694.19;;;20.73;33.07
60465;BME280;46314;52.392;9.758;2023-05-01T11:43:08;100684.41;;;20.87;33.24
60465;BME280;46314;52.392;9.758;2023-05-01T11:45:35;100683.69;;;21.32;33.56
60465;BME280;46314;52.392;9.758;2023-05-01T11:48:13;100677.97;;;20.86;32.98
60465;BME280;46314;52.392;9.758;2023-05-01T11:50:39;100676.84;;;21.33;33.66
60465;BME280;46314;52.392;9.758;2023-05-01T11:53:09;100672.81;;;21.54;32.31
60465;BME280;46314;52.392;9.758;2023-05-01T11:55:36;100674.81;;;21.77;32.64
60465;BME280;46314;52.392;9.758;2023-05-01T11:58:03;100671.03;;;21.92;32.76
60465;BME280;46314;52.392;9.758;2023-05-01T12:00:31;100674.41;;;21.32;32.85
60465;BME280;46314;52.392;9.758;2023-05-01T12:03:00;100667.63;;;21.83;32.09
60465;BME280;46314;52.392;9.758;2023-05-01T12:05:30;100666.41;;;21.57;31.92
60465;BME280;46314;52.392;9.758;2023-05-01T12:08:11;100659.66;;;21.42;32.34
60465;BME280;46314;52.392;9.758;2023-05-01T12:10:39;100665.59;;;21.37;31.52
60465;BME280;46314;52.392;9.758;2023-05-01T12:13:08;100665.53;;;20.91;32.05
60465;BME280;46314;52.392;9.758;2023-05-01T12:15:36;100668.38;;;21.53;32.38
60465;BME280;46314;52.392;9.758;2023-05-01T12:18:03;100662.63;;;21.07;33.70
60465;BME280;46314;52.392;9.758;2023-05-01T12:20:35;100664.53;;;21.65;32.36
60465;BME280;46314;52.392;9.758;2023-05-01T12:23:03;100665.31;;;21.88;32.56
60465;BME280;46314;52.392;9.758;2023-05-01T12:25:29;100666.59;;;22.44;31.38
60465;BME280;46314;52.392;9.758;2023-05-01T12:27:56;100658.59;;;22.50;31.49
60465;BME280;46314;52.392;9.758;2023-05-01T12:30:26;100655.00;;;22.26;31.38
60465;BME280;46314;52.392;9.758;2023-05-01T12:32:53;100656.06;;;21.91;32.45
60465;BME280;46314;52.392;9.758;2023-05-01T12:35:19;100650.50;;;22.82;32.29
60465;BME280;46314;52.392;9.758;2023-05-01T12:37:47;100657.91;;;22.30;31.39
60465;BME280;46314;52.392;9.758;2023-05-01T12:40:14;100642.28;;;22.40;31.64
60465;BME280;46314;52.392;9.758;2023-05-01T12:42:41;100650.41;;;21.65;32.83
60465;BME280;46314;52.392;9.758;2023-05-01T12:45:08;100651.31;;;21.96;31.70
60465;BME280;46314;52.392;9.758;2023-05-01T12:47:35;100650.69;;;21.83;32.26
60465;BME280;46314;52.392;9.758;2023-05-01T12:50:03;100652.13;;;22.23;31.30
60465;BME280;46314;52.392;9.758;2023-05-01T12:52:30;100641.56;;;22.20;31.43
60465;BME280;46314;52.392;9.758;2023-05-01T12:55:03;100641.25;;;21.98;30.44
60465;BME280;46314;52.392;9.758;2023-05-01T12:57:30;100626.44;;;21.32;32.61
60465;BME280;46314;52.392;9.758;2023-05-01T13:00:02;100630.22;;;21.89;30.93
60465;BME280;46314;52.392;9.758;2023-05-01T13:02:29;100634.22;;;21.62;31.58
60465;BME280;46314;52.392;9.758;2023-05-01T13:05:07;100626.91;;;21.84;31.09
60465;BME280;46314;52.392;9.758;2023-05-01T13:07:34;100626.50;;;21.82;30.61